Time;durP1;ratioP1;P1;durP2;ratioP2;P2;SDS_P1;SDS_P2;PMS_P1;PMS_P2;Temp;Humidity;BMP_temperature;BMP_pressure;BME280_temperature;BME280_humidity;BME280_pressure;Samples;Min_cycle;Max_cycle;Signal;HPM_P1;HPM_P2
2021/09/23 09:04:52;;;;;;;9.15;4.43;;;22.00;99.90;;;;;;4951240;29;20255;-73
2021/09/23 09:07:25;;;;;;;12.35;4.95;;;21.90;99.90;;;;;;4950566;28;20259;-72
2021/09/23 09:09:52;;;;;;;10.05;5.47;;;21.80;99.90;;;;;;4944657;29;20470;-74
2021/09/23 09:12:19;;;;;;;7.82;4.82;;;21.80;99.90;;;;;;4918947;29;20212;-72
2021/09/23 09:14:48;;;;;;;8.50;4.85;;;21.60;99.90;;;;;;4933723;29;20216;-73
2021/09/23 09:17:19;;;;;;;9.40;5.25;;;21.30;99.90;;;;;;4935661;29;20299;-79
2021/09/23 09:19:50;;;;;;;9.55;5.05;;;21.10;99.90;;;;;;4945707;29;20774;-75
2021/09/23 09:22:19;;;;;;;8.52;4.38;;;20.70;99.90;;;;;;4938159;29;20267;-85
2021/09/23 09:24:53;;;;;;;9.38;5.10;;;20.40;99.90;;;;;;4929796;29;20206;-74
2021/09/23 09:27:38;;;;;;;10.88;4.72;;;20.10;99.90;;;;;;4918154;29;20571;-73
2021/09/23 09:30:09;;;;;;;9.68;5.95;;;20.10;99.90;;;;;;4923630;29;20703;-74
2021/09/23 09:32:42;;;;;;;12.55;5.40;;;20.10;99.90;;;;;;4937069;29;20213;-74
2021/09/23 09:35:13;;;;;;;10.80;6.03;;;20.00;99.90;;;;;;4954405;29;20219;-74
2021/09/23 09:37:42;;;;;;;10.73;5.87;;;20.00;99.90;;;;;;4939783;29;20209;-71
2021/09/23 09:40:14;;;;;;;11.65;5.65;;;19.90;99.90;;;;;;4936240;29;20236;-76
2021/09/23 09:42:43;;;;;;;13.02;5.80;;;20.10;99.90;;;;;;4937669;29;20213;-75
2021/09/23 09:45:20;;;;;;;11.50;5.88;;;20.10;99.90;;;;;;4938249;29;20209;-75
2021/09/23 09:47:53;;;;;;;12.38;6.18;;;20.10;99.90;;;;;;4937161;29;20244;-75
2021/09/23 09:50:23;;;;;;;12.02;6.82;;;20.30;99.90;;;;;;4936911;29;20333;-74
2021/09/23 09:52:56;;;;;;;14.88;6.03;;;20.20;99.90;;;;;;4936803;29;20215;-74
2021/09/23 09:55:24;;;;;;;9.80;5.72;;;20.20;99.90;;;;;;4936365;29;20218;-74
2021/09/23 09:57:51;;;;;;;11.02;5.70;;;20.20;99.90;;;;;;4937006;29;20287;-77
2021/09/23 10:00:19;;;;;;;10.73;5.57;;;20.10;99.90;;;;;;4935827;29;20707;-75
2021/09/23 10:02:47;;;;;;;8.32;4.68;;;20.20;99.90;;;;;;4932594;29;20215;-76
2021/09/23 10:05:15;;;;;;;8.98;4.80;;;20.30;99.90;;;;;;4936787;29;20613;-73
2021/09/23 10:07:46;;;;;;;8.85;5.03;;;20.20;99.90;;;;;;4934060;29;20219;-74
2021/09/23 10:10:14;;;;;;;13.57;5.85;;;20.10;99.90;;;;;;4923869;29;20326;-76
2021/09/23 10:12:44;;;;;;;10.15;5.32;;;20.10;99.90;;;;;;4936305;29;20213;-74
2021/09/23 10:15:14;;;;;;;10.27;5.07;;;20.20;99.90;;;;;;4936585;29;20223;-73
2021/09/23 10:17:42;;;;;;;11.60;5.00;;;20.20;99.90;;;;;;4936178;29;20204;-73
2021/09/23 10:20:11;;;;;;;9.93;4.40;;;20.30;99.90;;;;;;4935520;29;20235;-72
2021/09/23 10:22:38;;;;;;;8.57;4.85;;;20.50;99.90;;;;;;4936583;29;20248;-71
2021/09/23 10:25:10;;;;;;;7.60;3.72;;;20.60;99.90;;;;;;4935960;29;20217;-76
2021/09/23 10:30:29;;;;;;;8.55;3.85;;;20.70;99.90;;;;;;4937310;29;20254;-73
2021/09/23 10:32:56;;;;;;;6.90;4.03;;;20.60;99.90;;;;;;4938208;29;20219;-73
2021/09/23 10:35:23;;;;;;;5.93;3.63;;;20.60;99.90;;;;;;4935700;29;20209;-74
2021/09/23 10:37:52;;;;;;;6.75;4.00;;;20.50;99.90;;;;;;4921256;29;20317;-75
2021/09/23 10:40:20;;;;;;;6.22;3.80;;;20.40;99.90;;;;;;4927884;29;20236;-73
2021/09/23 10:42:49;;;;;;;8.77;3.70;;;20.40;99.90;;;;;;4939151;29;20215;-75
2021/09/23 10:45:19;;;;;;;6.95;4.10;;;20.20;99.90;;;;;;4951375;29;20208;-77
2021/09/23 10:47:49;;;;;;;8.02;3.38;;;20.20;99.90;;;;;;4945723;29;20212;-75
2021/09/23 10:50:24;;;;;;;7.35;3.72;;;20.30;99.90;;;;;;4948750;29;20636;-76
2021/09/23 10:52:53;;;;;;;7.45;4.72;;;20.40;99.90;;;;;;4955077;29;20266;-76
2021/09/23 10:55:23;;;;;;;7.10;4.00;;;20.50;99.90;;;;;;4956652;29;20219;-74
2021/09/23 10:57:50;;;;;;;7.95;4.38;;;20.60;99.90;;;;;;4938674;29;20211;-77
2021/09/23 11:00:18;;;;;;;12.82;3.72;;;20.60;99.90;;;;;;4936697;29;20710;-77
2021/09/23 11:02:46;;;;;;;11.32;4.95;;;20.60;99.90;;;;;;4937180;29;20223;-80
2021/09/23 11:05:14;;;;;;;8.27;4.30;;;20.60;99.90;;;;;;4937090;29;20219;-76
2021/09/23 11:07:43;;;;;;;10.25;4.90;;;20.60;99.90;;;;;;4938245;29;20239;-77
2021/09/23 11:10:15;;;;;;;11.85;4.55;;;20.60;99.90;;;;;;4937536;29;20269;-77
2021/09/23 11:12:49;;;;;;;7.15;3.92;;;20.50;99.90;;;;;;4923247;29;20652;-82
2021/09/23 11:15:19;;;;;;;11.48;4.50;;;20.60;99.90;;;;;;4937227;29;20205;-75
2021/09/23 11:17:46;;;;;;;9.13;3.80;;;20.60;99.90;;;;;;4936866;29;20212;-84
2021/09/23 11:20:16;;;;;;;9.05;4.40;;;20.70;99.90;;;;;;4936420;29;20224;-75
2021/09/23 11:22:45;;;;;;;8.35;3.50;;;20.70;99.90;;;;;;4936662;29;20701;-75
2021/09/23 11:25:14;;;;;;;11.05;4.30;;;20.80;99.90;;;;;;4936816;29;20659;-76
2021/09/23 11:27:42;;;;;;;7.28;4.07;;;20.90;99.90;;;;;;4936382;29;20567;-80
2021/09/23 11:30:13;;;;;;;7.07;3.67;;;21.00;99.90;;;;;;4936359;29;20244;-82
2021/09/23 11:32:48;;;;;;;5.63;3.42;;;21.10;99.90;;;;;;4936655;29;20212;-76
2021/09/23 11:35:15;;;;;;;6.32;3.67;;;21.20;99.90;;;;;;4936481;29;20204;-84
2021/09/23 11:37:42;;;;;;;5.43;3.10;;;21.20;99.90;;;;;;4936684;29;20212;-77
2021/09/23 11:40:11;;;;;;;5.28;3.22;;;21.30;99.90;;;;;;4935507;29;20229;-87
2021/09/23 11:42:43;;;;;;;8.00;4.00;;;21.30;99.90;;;;;;4936564;29;20682;-87
2021/09/23 11:45:15;;;;;;;7.43;3.58;;;21.30;99.90;;;;;;4936513;29;20209;-76
2021/09/23 11:47:45;;;;;;;6.95;3.63;;;21.10;99.90;;;;;;4936167;29;20308;-76
2021/09/23 11:50:32;;;;;;;7.57;3.35;;;21.10;99.90;;;;;;4935480;29;20241;-76
2021/09/23 11:53:04;;;;;;;5.35;3.00;;;21.20;99.90;;;;;;4935714;29;20220;-75
2021/09/23 11:55:32;;;;;;;4.85;3.00;;;21.30;99.90;;;;;;4935969;29;20686;-76
2021/09/23 11:58:05;;;;;;;4.68;2.55;;;21.30;99.90;;;;;;4935991;29;20295;-76
2021/09/23 12:00:35;;;;;;;4.65;2.83;;;21.20;99.90;;;;;;4935677;29;20236;-81
2021/09/23 12:03:03;;;;;;;7.97;3.00;;;21.20;99.90;;;;;;4935899;29;20575;-79
2021/09/23 12:05:31;;;;;;;4.10;2.35;;;21.20;99.90;;;;;;4935993;29;20587;-81
2021/09/23 12:08:06;;;;;;;4.88;2.90;;;21.30;99.90;;;;;;4935768;29;20213;-81
2021/09/23 12:10:34;;;;;;;4.38;2.63;;;21.20;99.90;;;;;;4935492;29;20250;-81
2021/09/23 12:13:02;;;;;;;5.28;2.28;;;21.40;99.90;;;;;;4935947;29;20209;-77
2021/09/23 12:15:30;;;;;;;4.00;2.45;;;21.50;99.90;;;;;;4935646;29;20295;-81
2021/09/23 12:18:02;;;;;;;6.28;2.63;;;21.60;99.90;;;;;;4935585;29;20248;-77
2021/09/23 12:20:40;;;;;;;5.47;2.90;;;21.60;99.90;;;;;;4935528;29;20353;-79
2021/09/23 12:23:28;;;;;;;6.72;3.10;;;21.60;99.90;;;;;;4935761;29;20211;-78
2021/09/23 12:26:19;;;;;;;3.92;2.47;;;21.50;99.90;;;;;;4935456;29;20664;-83
2021/09/23 12:28:54;;;;;;;5.28;2.80;;;21.50;99.90;;;;;;4935369;29;20656;-78
2021/09/23 12:31:37;;;;;;;5.40;3.00;;;21.30;99.90;;;;;;4935654;29;20571;-78
2021/09/23 12:34:08;;;;;;;8.60;2.60;;;21.20;99.90;;;;;;4935473;29;20572;-78
2021/09/23 12:36:38;;;;;;;5.22;3.22;;;21.10;99.90;;;;;;4935477;29;20216;-80
2021/09/23 12:39:11;;;;;;;4.38;2.53;;;20.90;99.90;;;;;;4935209;29;20224;-79
2021/09/23 12:41:39;;;;;;;7.22;3.17;;;20.80;99.90;;;;;;4935427;29;20620;-79
2021/09/23 12:44:07;;;;;;;8.50;2.90;;;20.80;99.90;;;;;;4935730;29;20216;-77
2021/09/23 12:46:35;;;;;;;4.90;2.42;;;20.80;99.90;;;;;;4935329;29;20215;-75
2021/09/23 12:49:17;;;;;;;5.03;2.40;;;20.80;99.90;;;;;;4934928;29;20236;-76
2021/09/23 12:51:46;;;;;;;4.30;2.40;;;21.00;99.90;;;;;;4935102;29;20259;-73
2021/09/23 12:54:22;;;;;;;5.13;2.58;;;21.10;99.90;;;;;;4937781;29;20244;-76
2021/09/23 12:56:49;;;;;;;5.03;2.33;;;21.10;99.90;;;;;;4938815;29;20288;-73
2021/09/23 12:59:21;;;;;;;3.60;2.15;;;21.20;99.90;;;;;;4938966;29;20231;-73
2021/09/23 13:01:48;;;;;;;4.25;2.30;;;21.20;99.90;;;;;;4939430;29;20213;-73
2021/09/23 13:04:24;;;;;;;5.32;2.35;;;21.30;99.90;;;;;;4938509;29;20220;-73
2021/09/23 13:06:51;;;;;;;5.10;2.05;;;21.20;99.90;;;;;;4938592;29;20208;-73
2021/09/23 13:09:18;;;;;;;4.63;2.28;;;21.20;99.90;;;;;;4937805;29;20246;-73
2021/09/23 13:11:45;;;;;;;7.47;2.45;;;21.00;99.90;;;;;;4937838;29;20660;-72
2021/09/23 13:14:22;;;;;;;5.82;2.50;;;20.90;99.90;;;;;;4937934;29;20289;-72
2021/09/23 13:16:49;;;;;;;3.92;2.15;;;20.90;99.90;;;;;;4937677;29;20208;-74
2021/09/23 13:19:16;;;;;;;6.13;2.00;;;20.90;99.90;;;;;;4937266;29;20336;-72
2021/09/23 13:21:45;;;;;;;3.65;1.98;;;21.00;99.90;;;;;;4937942;29;20204;-73
2021/09/23 13:24:13;;;;;;;8.15;2.40;;;21.10;99.90;;;;;;4937735;29;20219;-75
2021/09/23 13:26:44;;;;;;;5.95;2.20;;;21.20;99.90;;;;;;4939836;29;20209;-77
2021/09/23 13:29:11;;;;;;;3.65;2.00;;;21.30;99.90;;;;;;4938593;29;20224;-75
2021/09/23 13:31:38;;;;;;;6.47;2.33;;;21.40;99.90;;;;;;4939855;29;20209;-82
2021/09/23 13:34:05;;;;;;;4.22;1.55;;;21.30;99.90;;;;;;4934962;29;20295;-76
2021/09/23 13:36:32;;;;;;;3.92;1.80;;;21.40;99.90;;;;;;4938291;29;20615;-78
2021/09/23 13:39:04;;;;;;;3.35;1.70;;;21.30;99.90;;;;;;4937813;29;20315;-77
2021/09/23 13:41:31;;;;;;;7.90;1.70;;;21.40;99.90;;;;;;4936806;29;20267;-81
2021/09/23 13:43:57;;;;;;;2.78;1.63;;;21.40;99.90;;;;;;4924127;29;20220;-77
2021/09/23 13:46:24;;;;;;;3.10;1.88;;;21.50;99.90;;;;;;4935806;29;20340;-77
2021/09/23 13:48:51;;;;;;;6.65;1.90;;;21.60;99.90;;;;;;4925470;29;20977;-79
2021/09/23 13:51:18;;;;;;;2.88;1.50;;;21.60;99.90;;;;;;4918595;29;20237;-78
2021/09/23 13:53:45;;;;;;;3.45;1.30;;;21.70;99.90;;;;;;4931209;29;20576;-78
2021/09/23 13:56:13;;;;;;;4.95;1.40;;;21.80;99.90;;;;;;4941481;29;20241;-80
2021/09/23 13:58:40;;;;;;;6.20;1.25;;;21.90;99.90;;;;;;4951988;29;20208;-81
2021/09/23 14:01:07;;;;;;;3.50;1.30;;;22.20;99.90;;;;;;4945216;28;20329;-75
2021/09/23 14:03:33;;;;;;;7.63;1.10;;;22.20;99.90;;;;;;4932221;29;20639;-77
2021/09/23 14:06:01;;;;;;;2.78;1.10;;;22.40;99.90;;;;;;4928632;29;20204;-78
2021/09/23 14:08:28;;;;;;;2.33;1.30;;;22.50;99.90;;;;;;4955567;29;20219;-77
2021/09/23 14:10:55;;;;;;;5.65;1.55;;;22.60;99.90;;;;;;4945089;29;20240;-79
2021/09/23 14:13:23;;;;;;;1.60;0.80;;;22.60;99.90;;;;;;4940381;29;20212;-81
2021/09/23 14:15:50;;;;;;;2.10;1.05;;;22.70;99.90;;;;;;4934373;29;20300;-78
2021/09/23 14:18:17;;;;;;;1.88;0.90;;;22.90;99.90;;;;;;4927473;29;20211;-78
2021/09/23 14:20:44;;;;;;;1.90;1.20;;;23.10;99.90;;;;;;4947626;29;20315;-78
2021/09/23 14:23:12;;;;;;;3.53;0.90;;;23.10;99.90;;;;;;4939650;29;20205;-74
2021/09/23 14:25:39;;;;;;;8.38;1.00;;;23.00;99.90;;;;;;4917204;29;20210;-72
2021/09/23 14:28:06;;;;;;;4.03;0.85;;;22.90;99.90;;;;;;4917732;29;20213;-80
2021/09/23 14:30:35;;;;;;;2.67;0.95;;;22.80;99.90;;;;;;4944708;29;20250;-70
2021/09/23 14:33:02;;;;;;;3.47;0.90;;;22.60;99.90;;;;;;4941196;29;20209;-74
2021/09/23 14:35:30;;;;;;;6.05;0.90;;;22.30;99.90;;;;;;4913981;29;20614;-78
2021/09/23 14:37:57;;;;;;;2.05;0.90;;;22.40;99.90;;;;;;4917253;29;20657;-78
2021/09/23 14:40:27;;;;;;;1.30;0.80;;;22.40;99.90;;;;;;4930893;29;20233;-81
2021/09/23 14:42:54;;;;;;;3.55;1.08;;;22.50;99.90;;;;;;4935467;29;20296;-78
2021/09/23 14:45:21;;;;;;;1.95;0.85;;;22.60;99.90;;;;;;4935603;29;20223;-76
2021/09/23 14:47:50;;;;;;;2.92;0.90;;;22.60;99.90;;;;;;4933309;29;20238;-76
2021/09/23 14:50:17;;;;;;;2.80;0.90;;;22.40;99.90;;;;;;4941637;29;20235;-73
2021/09/23 14:52:44;;;;;;;1.77;0.70;;;22.10;99.90;;;;;;4953889;29;20214;-74
2021/09/23 14:55:11;;;;;;;3.67;0.63;;;22.00;99.90;;;;;;4942156;29;20215;-74
2021/09/23 14:57:39;;;;;;;2.97;1.13;;;22.00;99.90;;;;;;4936630;29;20232;-74
2021/09/23 15:00:08;;;;;;;10.77;1.60;;;22.00;99.90;;;;;;4936695;29;20596;-75
2021/09/23 15:02:35;;;;;;;4.90;1.00;;;22.10;99.90;;;;;;4937099;29;20209;-73
2021/09/23 15:05:03;;;;;;;9.18;1.00;;;22.20;99.90;;;;;;4936830;29;20213;-75
2021/09/23 15:07:30;;;;;;;5.45;0.88;;;22.30;99.90;;;;;;4936554;29;20209;-74
2021/09/23 15:09:58;;;;;;;3.50;0.93;;;22.20;99.90;;;;;;4935145;29;20608;-74
2021/09/23 15:12:25;;;;;;;3.70;0.90;;;22.20;99.90;;;;;;4936262;29;20223;-74
2021/09/23 15:14:52;;;;;;;5.53;0.90;;;22.10;99.90;;;;;;4936206;29;20205;-74
2021/09/23 15:17:20;;;;;;;2.75;0.90;;;22.00;99.90;;;;;;4936952;29;20209;-74
2021/09/23 15:19:47;;;;;;;3.13;1.40;;;22.00;99.90;;;;;;4936349;29;20715;-74
2021/09/23 15:22:15;;;;;;;1.55;0.80;;;22.00;99.90;;;;;;4936541;29;20233;-74
2021/09/23 15:24:42;;;;;;;3.85;1.23;;;22.00;99.90;;;;;;4936533;29;20212;-75
2021/09/23 15:27:09;;;;;;;4.07;1.60;;;21.90;99.90;;;;;;4936392;29;20660;-74
2021/09/23 15:29:36;;;;;;;2.90;0.95;;;21.80;99.90;;;;;;4936469;29;20225;-75
2021/09/23 15:32:03;;;;;;;4.07;1.15;;;21.80;99.90;;;;;;4936453;29;20259;-74
2021/09/23 15:34:30;;;;;;;2.42;0.82;;;21.80;99.90;;;;;;4936261;29;20224;-73
2021/09/23 15:36:57;;;;;;;4.30;0.82;;;21.90;99.90;;;;;;4936365;29;20219;-75
2021/09/23 15:39:25;;;;;;;1.92;0.60;;;21.90;99.90;;;;;;4936518;29;20703;-73
2021/09/23 15:41:52;;;;;;;1.83;0.80;;;21.80;99.90;;;;;;4936420;29;20219;-74
2021/09/23 15:44:19;;;;;;;1.58;0.68;;;21.70;99.90;;;;;;4936423;29;20209;-74
2021/09/23 15:46:46;;;;;;;1.58;0.80;;;21.60;99.90;;;;;;4936236;29;20213;-74
2021/09/23 15:49:12;;;;;;;3.30;0.82;;;21.60;99.90;;;;;;4936058;29;20235;-74
2021/09/23 15:51:39;;;;;;;4.55;1.40;;;21.60;99.90;;;;;;4935898;29;20248;-73
2021/09/23 15:54:06;;;;;;;2.28;0.70;;;21.60;99.90;;;;;;4936028;29;20686;-72
2021/09/23 15:56:35;;;;;;;2.25;0.95;;;21.50;99.90;;;;;;4939487;29;20207;-74
2021/09/23 15:59:02;;;;;;;2.10;0.90;;;21.50;99.90;;;;;;4955169;29;20228;-74
2021/09/23 16:01:29;;;;;;;3.83;0.85;;;21.40;99.90;;;;;;4946876;29;20212;-73
2021/09/23 16:03:56;;;;;;;1.83;0.85;;;21.10;99.90;;;;;;4935599;29;20208;-75
2021/09/23 16:06:23;;;;;;;1.63;0.90;;;21.00;99.90;;;;;;4935324;29;20209;-77
2021/09/23 16:08:50;;;;;;;2.03;1.00;;;20.90;99.90;;;;;;4935408;29;20584;-76
2021/09/23 16:11:17;;;;;;;3.25;1.00;;;20.90;99.90;;;;;;4935290;29;20699;-74
2021/09/23 16:13:45;;;;;;;1.80;0.90;;;21.00;99.90;;;;;;4926791;29;20209;-78
2021/09/23 16:16:11;;;;;;;2.28;0.70;;;20.70;99.90;;;;;;4931007;29;20209;-78
2021/09/23 16:18:38;;;;;;;3.42;1.85;;;20.70;99.90;;;;;;4935043;29;20201;-79
2021/09/23 16:21:05;;;;;;;5.20;1.23;;;20.70;99.90;;;;;;4935304;29;20205;-77
2021/09/23 16:23:32;;;;;;;2.03;0.80;;;20.60;99.90;;;;;;4935014;29;20220;-80
2021/09/23 16:25:59;;;;;;;3.20;1.08;;;20.60;99.90;;;;;;4922540;29;20217;-82
2021/09/23 16:28:26;;;;;;;2.63;1.00;;;20.60;99.90;;;;;;4928175;29;20212;-78
2021/09/23 16:30:54;;;;;;;3.30;1.23;;;20.60;99.90;;;;;;4930346;29;20590;-79
2021/09/23 16:33:21;;;;;;;2.10;0.90;;;20.60;99.90;;;;;;4930132;29;20564;-78
2021/09/23 16:35:49;;;;;;;2.83;1.05;;;20.70;99.90;;;;;;4932789;29;20209;-80
2021/09/23 16:38:16;;;;;;;0.95;0.80;;;20.70;99.90;;;;;;4933096;29;20260;-75
2021/09/23 16:40:42;;;;;;;2.63;1.08;;;20.60;99.90;;;;;;4931246;29;20707;-79
2021/09/23 16:43:09;;;;;;;1.80;1.05;;;20.60;99.90;;;;;;4935050;29;20269;-80
2021/09/23 16:45:36;;;;;;;1.73;0.90;;;20.50;99.90;;;;;;4932124;29;20220;-79
2021/09/23 16:48:05;;;;;;;4.95;1.00;;;20.40;99.90;;;;;;4931476;29;20233;-81
2021/09/23 16:50:32;;;;;;;3.13;1.00;;;20.40;99.90;;;;;;4928290;29;20722;-79
2021/09/23 16:52:58;;;;;;;2.40;0.88;;;20.50;99.90;;;;;;4934610;29;20213;-77
2021/09/23 16:55:25;;;;;;;1.70;0.90;;;20.40;99.90;;;;;;4930468;29;20209;-79
2021/09/23 16:57:53;;;;;;;2.78;1.02;;;20.40;99.90;;;;;;4931656;29;20260;-75
2021/09/23 17:00:21;;;;;;;3.65;1.80;;;20.30;99.90;;;;;;4932058;29;20276;-74
2021/09/23 17:02:48;;;;;;;1.30;0.85;;;20.20;99.90;;;;;;4928760;29;20845;-79
2021/09/23 17:05:17;;;;;;;4.15;0.90;;;20.30;99.90;;;;;;4930906;29;20216;-80
2021/09/23 17:07:45;;;;;;;2.03;0.80;;;20.40;99.90;;;;;;4930044;29;20205;-79
2021/09/23 17:10:13;;;;;;;2.75;1.25;;;20.50;99.90;;;;;;4932899;29;20237;-79
2021/09/23 17:12:40;;;;;;;3.05;0.90;;;20.40;99.90;;;;;;4930155;29;20238;-80
2021/09/23 17:15:09;;;;;;;3.88;1.13;;;20.40;99.90;;;;;;4923259;29;20209;-79
2021/09/23 17:17:36;;;;;;;2.08;0.82;;;20.30;99.90;;;;;;4930627;29;20205;-80
2021/09/23 17:20:06;;;;;;;3.10;0.90;;;20.30;99.90;;;;;;4931877;29;20236;-77
2021/09/23 17:22:35;;;;;;;2.60;0.85;;;20.40;99.90;;;;;;4932984;29;20660;-80
2021/09/23 17:25:02;;;;;;;1.17;0.80;;;20.50;99.90;;;;;;4932605;29;20235;-79
2021/09/23 17:27:29;;;;;;;3.00;1.08;;;20.50;99.90;;;;;;4929393;29;20209;-80
2021/09/23 17:29:55;;;;;;;3.45;0.90;;;20.50;99.90;;;;;;4932299;29;20233;-79
2021/09/23 17:32:22;;;;;;;1.67;0.80;;;20.40;99.90;;;;;;4932478;29;20240;-78
2021/09/23 17:34:49;;;;;;;2.60;1.17;;;20.40;99.90;;;;;;4929289;29;20571;-80
2021/09/23 17:37:16;;;;;;;2.25;1.15;;;20.30;99.90;;;;;;4931219;29;20208;-79
2021/09/23 17:39:44;;;;;;;2.97;0.98;;;20.30;99.90;;;;;;4934226;29;20237;-79
2021/09/23 17:42:11;;;;;;;3.13;0.90;;;20.30;99.90;;;;;;4933818;29;20213;-79
2021/09/23 17:44:38;;;;;;;3.85;0.80;;;20.30;99.90;;;;;;4927048;29;20209;-79
2021/09/23 17:47:05;;;;;;;1.80;0.90;;;20.50;99.90;;;;;;4931473;29;20208;-77
2021/09/23 17:49:31;;;;;;;2.75;0.63;;;20.40;99.90;;;;;;4935258;29;20227;-79
2021/09/23 17:51:58;;;;;;;1.88;0.80;;;20.40;99.90;;;;;;4930541;29;20236;-76
2021/09/23 17:54:25;;;;;;;1.13;0.73;;;20.40;99.90;;;;;;4930045;29;20312;-81
2021/09/23 17:56:53;;;;;;;1.23;0.88;;;20.50;99.90;;;;;;4935407;29;20576;-77
2021/09/23 17:59:20;;;;;;;3.40;1.80;;;20.50;99.90;;;;;;4933824;29;20228;-79
2021/09/23 18:01:47;;;;;;;4.13;1.20;;;20.40;99.90;;;;;;4933865;29;20572;-77
2021/09/23 18:04:14;;;;;;;5.20;1.20;;;20.40;99.90;;;;;;4934017;29;20664;-78
2021/09/23 18:06:42;;;;;;;2.80;0.88;;;20.30;99.90;;;;;;4931966;29;20554;-80
2021/09/23 18:09:09;;;;;;;2.78;1.17;;;20.30;99.90;;;;;;4930451;29;20751;-81
2021/09/23 18:11:36;;;;;;;2.13;1.00;;;20.40;99.90;;;;;;4930750;29;20240;-81
2021/09/23 18:14:04;;;;;;;7.97;1.10;;;20.40;99.90;;;;;;4927750;29;20213;-75
2021/09/23 18:16:31;;;;;;;2.42;0.77;;;20.40;99.90;;;;;;4929343;29;20937;-80
2021/09/23 18:19:04;;;;;;;3.38;1.42;;;20.40;99.90;;;;;;4929734;29;20236;-76
2021/09/23 18:21:31;;;;;;;2.53;0.98;;;20.50;99.90;;;;;;4931577;29;20240;-80
2021/09/23 18:24:02;;;;;;;1.45;1.00;;;20.50;99.90;;;;;;4934293;29;20292;-79
2021/09/23 18:26:28;;;;;;;2.42;1.00;;;20.50;99.90;;;;;;4932743;29;20214;-79
2021/09/23 18:28:55;;;;;;;3.10;1.17;;;20.40;99.90;;;;;;4934070;29;20599;-80
2021/09/23 18:31:25;;;;;;;2.55;1.17;;;20.40;99.90;;;;;;4933054;29;20742;-79
2021/09/23 18:33:52;;;;;;;2.60;0.88;;;20.30;99.90;;;;;;4913433;29;20204;-75
2021/09/23 18:36:19;;;;;;;2.60;1.00;;;20.20;99.90;;;;;;4930313;29;20232;-80
2021/09/23 18:38:46;;;;;;;1.60;0.90;;;20.10;99.90;;;;;;4930800;29;20212;-79
2021/09/23 18:41:14;;;;;;;2.28;1.00;;;20.10;99.90;;;;;;4930052;29;20223;-80
2021/09/23 18:43:40;;;;;;;1.45;1.00;;;20.00;99.90;;;;;;4933769;29;20205;-79
2021/09/23 18:46:08;;;;;;;3.28;1.00;;;19.90;99.90;;;;;;4926183;29;20205;-75
2021/09/23 18:48:36;;;;;;;2.72;0.93;;;19.90;99.90;;;;;;4926976;29;20213;-80
2021/09/23 18:51:04;;;;;;;2.95;1.30;;;19.80;99.90;;;;;;4932072;29;20300;-81
2021/09/23 18:53:31;;;;;;;3.35;1.38;;;19.70;99.90;;;;;;4936755;29;20665;-77
2021/09/23 18:55:58;;;;;;;2.58;0.90;;;19.70;99.90;;;;;;4936371;29;20209;-80
2021/09/23 18:58:25;;;;;;;2.20;0.90;;;19.70;99.90;;;;;;4936903;29;20205;-80
2021/09/23 19:00:51;;;;;;;1.88;1.17;;;19.60;99.90;;;;;;4936315;29;20746;-79
2021/09/23 19:03:21;;;;;;;3.05;1.33;;;19.50;99.90;;;;;;4933789;29;20227;-81
2021/09/23 19:05:49;;;;;;;1.90;1.00;;;19.50;99.90;;;;;;4934388;29;20676;-80
2021/09/23 19:08:16;;;;;;;2.03;1.15;;;19.30;99.90;;;;;;4936134;29;20212;-79
2021/09/23 19:10:44;;;;;;;2.53;1.23;;;19.20;99.90;;;;;;4917150;29;20244;-78
2021/09/23 19:13:12;;;;;;;2.08;1.08;;;19.10;99.90;;;;;;4933275;29;20246;-79
2021/09/23 19:15:39;;;;;;;2.63;1.25;;;19.00;99.90;;;;;;4932941;29;20215;-80
2021/09/23 19:18:07;;;;;;;2.05;0.80;;;19.00;99.90;;;;;;4954393;29;20288;-78
2021/09/23 19:20:33;;;;;;;2.00;1.07;;;18.90;99.90;;;;;;4954437;29;20239;-80
2021/09/23 19:23:02;;;;;;;2.13;1.27;;;18.90;99.90;;;;;;4936426;29;20208;-81
2021/09/23 19:25:28;;;;;;;2.43;1.00;;;18.80;99.90;;;;;;4936627;29;20209;-80
2021/09/23 19:27:58;;;;;;;1.83;1.13;;;18.70;99.90;;;;;;4936209;29;20216;-80
2021/09/23 19:30:25;;;;;;;0.83;0.80;;;18.70;99.90;;;;;;4936635;29;20632;-80
2021/09/23 19:32:54;;;;;;;3.80;1.20;;;18.60;99.90;;;;;;4934150;29;20248;-79
2021/09/23 19:35:24;;;;;;;1.17;0.90;;;18.50;99.90;;;;;;4925372;29;20227;-80
2021/09/23 19:37:51;;;;;;;3.33;0.80;;;18.50;99.90;;;;;;4936886;29;20714;-79
2021/09/23 19:40:19;;;;;;;2.07;1.20;;;18.40;99.90;;;;;;4936482;29;20232;-77
2021/09/23 19:42:47;;;;;;;1.90;1.10;;;18.30;99.90;;;;;;4937263;29;20212;-80
2021/09/23 19:45:16;;;;;;;3.10;1.17;;;18.30;99.90;;;;;;4929042;29;20216;-78
2021/09/23 19:47:43;;;;;;;3.27;1.00;;;18.20;99.90;;;;;;4917021;29;20546;-79
2021/09/23 19:50:12;;;;;;;2.40;1.00;;;18.10;99.90;;;;;;4917154;29;20225;-79
2021/09/23 19:52:40;;;;;;;1.70;1.10;;;18.00;99.90;;;;;;4916893;29;20238;-79
2021/09/23 19:55:08;;;;;;;3.13;1.20;;;17.90;99.90;;;;;;4923369;29;20212;-80
2021/09/23 19:57:36;;;;;;;2.00;1.33;;;17.90;99.90;;;;;;4935499;29;20216;-79
2021/09/23 20:00:05;;;;;;;2.57;0.90;;;17.80;99.90;;;;;;4935165;29;20232;-79
2021/09/23 20:02:32;;;;;;;4.67;1.30;;;17.70;99.90;;;;;;4935932;29;20209;-79
2021/09/23 20:04:59;;;;;;;2.10;1.20;;;17.60;99.90;;;;;;4935924;29;20292;-78
2021/09/23 20:07:26;;;;;;;1.67;0.90;;;17.60;99.90;;;;;;4936396;29;20212;-78
2021/09/23 20:09:53;;;;;;;1.70;0.93;;;17.60;99.90;;;;;;4929555;29;20289;-79
2021/09/23 20:12:21;;;;;;;1.57;0.90;;;17.70;99.90;;;;;;4923623;29;20237;-79
2021/09/23 20:14:50;;;;;;;1.80;1.10;;;17.70;99.90;;;;;;4934874;29;20205;-78
2021/09/23 20:17:16;;;;;;;1.47;0.90;;;17.60;99.90;;;;;;4942713;29;20205;-79
2021/09/23 20:19:44;;;;;;;2.87;0.90;;;17.60;99.90;;;;;;4954528;29;20588;-79
2021/09/23 20:22:11;;;;;;;1.53;1.00;;;17.60;99.90;;;;;;4944590;29;20208;-79
2021/09/23 20:24:38;;;;;;;2.83;1.00;;;17.60;99.90;;;;;;4935862;29;20205;-79
2021/09/23 20:27:05;;;;;;;2.10;0.93;;;17.60;99.90;;;;;;4935809;29;20209;-80
2021/09/23 20:29:31;;;;;;;1.80;1.10;;;17.50;99.90;;;;;;4935953;29;20235;-75
2021/09/23 20:32:00;;;;;;;4.50;1.43;;;17.50;99.90;;;;;;4935923;29;20247;-77
2021/09/23 20:34:26;;;;;;;2.97;0.90;;;17.50;99.90;;;;;;4935604;29;20213;-77
2021/09/23 20:36:53;;;;;;;1.70;0.90;;;17.50;99.90;;;;;;4935829;29;20212;-76
2021/09/23 20:39:20;;;;;;;1.57;0.80;;;17.50;99.90;;;;;;4935281;29;20243;-79
2021/09/23 20:41:47;;;;;;;3.80;1.17;;;17.50;99.90;;;;;;4934796;29;20211;-79
2021/09/23 20:44:13;;;;;;;2.67;1.00;;;17.60;99.90;;;;;;4935706;29;20306;-78
2021/09/23 20:46:41;;;;;;;1.77;0.93;;;17.60;99.90;;;;;;4920906;29;20209;-79
2021/09/23 20:49:09;;;;;;;7.40;1.20;;;17.60;99.90;;;;;;4916224;29;20237;-78
2021/09/23 20:51:36;;;;;;;4.27;1.27;;;17.50;99.90;;;;;;4916230;29;20699;-79
2021/09/23 20:54:03;;;;;;;2.63;1.10;;;17.30;99.90;;;;;;4916304;29;20292;-78
2021/09/23 20:56:30;;;;;;;5.70;1.53;;;17.30;99.90;;;;;;4929209;29;20208;-79
2021/09/23 20:58:57;;;;;;;2.03;1.13;;;17.30;99.90;;;;;;4918551;29;20225;-76
2021/09/23 21:01:26;;;;;;;2.20;1.07;;;17.40;99.90;;;;;;4935512;29;20205;-80
2021/09/23 21:03:54;;;;;;;2.53;1.27;;;17.30;99.90;;;;;;4935270;29;20224;-79
2021/09/23 21:06:23;;;;;;;1.40;1.00;;;17.30;99.90;;;;;;4935357;29;20694;-80
2021/09/23 21:08:50;;;;;;;1.70;0.87;;;17.40;99.90;;;;;;4935415;29;20208;-79
2021/09/23 21:11:18;;;;;;;3.20;0.87;;;17.30;99.90;;;;;;4924329;29;20206;-77
